• Join FlightAware (Why Join?)
  • Login
  • US Flag 
05:53AM EDT


 

Airport Tracker/Info


-or-


 

Live Flight TrackerFlight Track Log ✈ JZA7853 ✈ 29-Jun-2013 ✈ KDCA - CYUL

Flight Track Log - Related Links

Times and Time Zones

All times are in EDT time to prevent confusion due to time zone crossing. See the JZA7853 flight status page for this flight to view local times or setup timezone preferences in your user account.

Time Position Orientation Groundspeed Altitude Reporting Facility
EDT Latitude Longitude Course Direction KTS MPH feet Rate Location/Type
10:49AM 38.8667 -77.0500 322° Northwest 164 189 1,300  Level Potomac TRACON
10:50AM 38.9167 -77.1000 322° Northwest 213 245 3,400 2,700 Climbing Potomac TRACON
10:52AM 39.0161 -77.2828 305° West 269 310 10,900 2,880 Climbing Washington Center
10:53AM 39.0481 -77.3744 294° West 274 315 13,600 2,520 Climbing Washington Center
10:54AM 39.1142 -77.4267 329° Northwest 274 315 16,100 2,040 Climbing Washington Center
10:56AM 39.3264 -77.4411 357° North 325 374 20,400 1,680 Climbing New York Center
10:57AM 39.4283 -77.4453 358° North 347 399 21,800 1,380 Climbing New York Center
10:58AM 39.5322 -77.4525 357° North 362 417 23,200 1,320 Climbing New York Center
10:59AM 39.6383 -77.4569 358° North 374 430 24,500 1,260 Climbing New York Center
11:00AM 39.7511 -77.4542 North 388 447 25,700 1,260 Climbing New York Center
11:01AM 39.8625 -77.4406 North 393 452 27,000 1,080 Climbing New York Center
11:02AM 39.9775 -77.3972 16° North 403 464 27,900 840 Climbing New York Center
11:03AM 40.0925 -77.3539 16° North 423 487 28,800 900 Climbing New York Center
11:04AM 40.2094 -77.3108 16° North 428 493 29,800 960 Climbing New York Center
11:05AM 40.3369 -77.2683 14° North 428 493 30,800 840 Climbing New York Center
11:06AM 40.4603 -77.2225 16° North 428 493 31,500 660 Climbing New York Center
11:07AM 40.5794 -77.1817 15° North 433 498 32,200 660 Climbing New York Center
11:08AM 40.7028 -77.1358 16° North 445 512 32,900 360 Climbing New York Center
11:09AM 40.8258 -77.0925 15° North 445 512 33,000  Climbing New York Center
11:10AM 40.9492 -77.0461 16° North 445 512 33,000  Level New York Center
11:11AM 41.0744 -77.0025 15° North 452 520 33,000  Level New York Center
11:12AM 41.1978 -76.9561 16° North 452 520 33,000  Level New York Center
11:13AM 41.3061 -76.9161 16° North 452 520 33,000  Level New York Center
11:14AM 41.4336 -76.8697 15° North 452 520 33,000  Level New York Center
11:15AM 41.5694 -76.8183 16° North 458 527 33,000  Level New York Center
11:18AM 41.8569 -76.7108 16° North 468 539 33,000  Level Boston Center
11:19AM 41.9819 -76.6633 16° North 462 532 33,000  Level Boston Center
11:20AM 42.1153 -76.6108 16° North 457 526 33,000  Level Boston Center
11:21AM 42.2294 -76.5681 16° North 462 532 33,000  Level Boston Center
11:22AM 42.3606 -76.5175 16° North 452 520 33,000  Level Boston Center
11:23AM 42.4831 -76.4722 15° North 452 520 33,000  Level Boston Center
11:24AM 42.6036 -76.4236 17° North 446 513 33,000  Level Boston Center
11:25AM 42.7219 -76.3775 16° North 446 513 33,000  Level Boston Center
11:26AM 42.8425 -76.3314 16° North 446 513 33,000  Level Boston Center
11:27AM 42.9628 -76.2850 16° North 446 513 33,000  Level Boston Center
11:28AM 43.0792 -76.2383 16° North 446 513 33,000  Level Boston Center
11:29AM 43.1992 -76.2031 12° North 440 506 33,000  Level Boston Center
11:30AM 43.3228 -76.1792 North 440 506 33,000  Level Boston Center
11:31AM 43.4444 -76.1553 North 434 499 33,000  Level Boston Center
11:32AM 43.5639 -76.1367 North 429 494 33,000  Level Boston Center
11:33AM 43.6836 -76.1153 North 429 494 33,000  Level Boston Center
11:34AM 43.8031 -76.0939 North 429 494 33,000  Level Boston Center
11:35AM 43.9078 -76.0744 North 429 494 33,000  Level Boston Center
11:36AM 44.0375 -75.9956 24° Northeast 415 478 33,000  Level Boston Center
11:37AM 44.1383 -75.9031 33° Northeast 415 478 33,000  Level Boston Center
11:38AM 44.2392 -75.8106 33° Northeast 425 489 33,000 -960 Level Boston Center
11:39AM 44.3417 -75.7206 32° Northeast 430 495 31,100 -2,760 Descending Boston Center
11:40AM 44.4000 -75.6333 47° Northeast 460 529 28,500 -3,240 Descending Montreal Center
11:41AM 44.5000 -75.5500 31° Northeast 450 518 25,900 -1,800 Descending Montreal Center
11:42AM 44.6167 -75.4500 31° Northeast 450 518 24,900 -960 Descending Montreal Center
11:43AM 44.7167 -75.3500 35° Northeast 470 541 24,000 -480 Descending Montreal Center
11:44AM 44.8000 -75.2167 49° Northeast 470 541 24,000 -420 Level Montreal Center
11:45AM 44.8833 -75.0667 52° Northeast 470 541 23,200 -1,020 Descending Montreal Center
11:46AM 44.9667 -74.9333 49° Northeast 470 541 22,000 -1,140 Descending Montreal Center
11:47AM 45.0333 -74.7667 60° Northeast 460 529 21,000 -1,440 Descending Montreal Center
11:48AM 45.1000 -74.6167 58° Northeast 450 518 19,200 -2,220 Descending Montreal Center
11:49AM 45.1667 -74.4667 58° Northeast 420 483 16,600 -2,280 Descending Montreal Center
11:50AM 45.2167 -74.3500 59° Northeast 400 460 14,700 -1,980 Descending Montreal Center
11:51AM 45.2833 -74.2000 58° Northeast 390 449 12,700 -1,860 Descending Montreal Center
11:52AM 45.3333 -74.0833 59° Northeast 390 449 11,000 -1,440 Descending Montreal Center
11:53AM 45.4000 -73.9833 46° Northeast 320 368 9,900 -1,200 Descending Montreal Center
11:54AM 45.4500 -73.9167 43° Northeast 310 357 8,600 -1,500 Descending Montreal Center
11:55AM 45.5167 -73.8167 46° Northeast 300 345 6,900 -1,860 Descending Montreal Center
11:56AM 45.5833 -73.7333 41° Northeast 290 334 4,900 -1,560 Descending Montreal Center
11:57AM 45.6333 -73.6667 43° Northeast 260 299 3,800 -960 Descending Montreal Center
11:58AM 45.6500 -73.6000 70° East 210 242 3,000 -420 Descending Montreal Center
11:59AM 45.6167 -73.5667 145° Southeast 180 207 3,000 -180 Level Montreal Center
12:00PM 45.5667 -73.6000 205° Southwest 190 219 2,700 -660 Descending Montreal Center
12:01PM 45.5333 -73.6500 226° Southwest 180 207 1,700 -960 Descending Montreal Center
12:02PM 45.5000 -73.7000 226° Southwest 160 184 800 -780 Descending Montreal Center
12:03PM 45.4667 -73.7167 199° South 130 150 200 -300 Descending Montreal Center
12:04PM 45.4500 -73.7500 235° Southwest 40 46 200  Level Montreal Center